ALB weather

Albany International Airport
Albany, New York, United States

Public forecast

Using degrees Fahrenheit for public forecast. Weather courtesy of forecast.io.

METAR (pilot weather report)

Retrieved 2019/03/19 14:51 UTC (14 minutes ago):

KALB 191451Z 30009KT 10SM FEW030 FEW045 03/M11 A3042 RMK AO2 SLP304 T00331106 51009

TAF (pilot weather forecast)

Retrieved 2019/03/19 12:33 UTC (3 hours ago):

TAF KALB 191129Z 1912/2012 00000KT P6SM FEW040 FEW080 FM191500 30009KT P6SM SCT040 TEMPO 1918/1922 29015G30KT BKN040 FM200000 VRB02KT P6SM FEW060